sensor_id;sensor_type;location;lat;lon;timestamp;pressure;altitude;pressure_sealevel;temperature;humidity
3590;BME280;1809;48.470;9.226;2023-02-19T00:02:05;76513.16;;;10.71;100.00
3590;BME280;1809;48.470;9.226;2023-02-19T00:04:30;76844.75;;;10.64;100.00
3590;BME280;1809;48.470;9.226;2023-02-19T00:06:55;78552.69;;;10.68;100.00
3590;BME280;1809;48.470;9.226;2023-02-19T00:09:21;79900.13;;;10.57;100.00
3590;BME280;1809;48.470;9.226;2023-02-19T00:11:46;82973.13;;;10.61;100.00
3590;BME280;1809;48.470;9.226;2023-02-19T00:14:17;83992.00;;;10.58;100.00
3590;BME280;1809;48.470;9.226;2023-02-19T00:16:43;84674.13;;;10.58;100.00
3590;BME280;1809;48.470;9.226;2023-02-19T00:19:14;85019.41;;;10.61;100.00
3590;BME280;1809;48.470;9.226;2023-02-19T00:21:40;84348.22;;;10.69;100.00
3590;BME280;1809;48.470;9.226;2023-02-19T00:24:06;83653.03;;;10.60;100.00
3590;BME280;1809;48.470;9.226;2023-02-19T00:26:32;85040.28;;;10.76;100.00
3590;BME280;1809;48.470;9.226;2023-02-19T00:28:59;82981.28;;;10.67;100.00
3590;BME280;1809;48.470;9.226;2023-02-19T00:31:30;83655.09;;;10.61;100.00
3590;BME280;1809;48.470;9.226;2023-02-19T00:33:57;84701.81;;;10.78;100.00
3590;BME280;1809;48.470;9.226;2023-02-19T00:36:24;77221.03;;;10.93;100.00
3590;BME280;1809;48.470;9.226;2023-02-19T00:38:50;74832.53;;;10.88;100.00
3590;BME280;1809;48.470;9.226;2023-02-19T00:41:16;72804.50;;;10.99;100.00
3590;BME280;1809;48.470;9.226;2023-02-19T00:43:52;70771.75;;;11.06;100.00
3590;BME280;1809;48.470;9.226;2023-02-19T00:46:20;70080.44;;;10.96;100.00
3590;BME280;1809;48.470;9.226;2023-02-19T00:48:46;71778.97;;;10.95;100.00
3590;BME280;1809;48.470;9.226;2023-02-19T00:51:11;71770.19;;;10.87;100.00
3590;BME280;1809;48.470;9.226;2023-02-19T00:53:37;69075.09;;;11.08;100.00
3590;BME280;1809;48.470;9.226;2023-02-19T00:56:03;62963.25;;;11.08;100.00
3590;BME280;1809;48.470;9.226;2023-02-19T00:58:28;62633.72;;;11.17;100.00
3590;BME280;1809;48.470;9.226;2023-02-19T01:00:53;57211.72;;;11.19;100.00
3590;BME280;1809;48.470;9.226;2023-02-19T01:03:19;56191.22;;;11.14;100.00
3590;BME280;1809;48.470;9.226;2023-02-19T01:05:47;55178.34;;;11.17;100.00
3590;BME280;1809;48.470;9.226;2023-02-19T01:08:12;56197.13;;;11.20;100.00
3590;BME280;1809;48.470;9.226;2023-02-19T01:10:37;54835.41;;;11.12;100.00
3590;BME280;1809;48.470;9.226;2023-02-19T01:13:03;55173.88;;;11.12;100.00
3590;BME280;1809;48.470;9.226;2023-02-19T01:15:28;53829.03;;;11.22;100.00
3590;BME280;1809;48.470;9.226;2023-02-19T01:17:53;50111.75;;;11.25;100.00
3590;BME280;1809;48.470;9.226;2023-02-19T01:20:19;49776.56;;;11.29;100.00
3590;BME280;1809;48.470;9.226;2023-02-19T01:22:44;46736.59;;;11.30;100.00
3590;BME280;1809;48.470;9.226;2023-02-19T01:25:09;45725.44;;;11.32;100.00
3590;BME280;1809;48.470;9.226;2023-02-19T01:27:34;45382.69;;;11.25;100.00
3590;BME280;1809;48.470;9.226;2023-02-19T01:30:00;47070.13;;;11.24;100.00
3590;BME280;1809;48.470;9.226;2023-02-19T01:32:25;44035.25;;;11.29;100.00
3590;BME280;1809;48.470;9.226;2023-02-19T01:34:50;45041.53;;;11.20;100.00
3590;BME280;1809;48.470;9.226;2023-02-19T01:37:16;48418.50;;;11.21;100.00
3590;BME280;1809;48.470;9.226;2023-02-19T01:39:41;50449.38;;;11.25;100.00
3590;BME280;1809;48.470;9.226;2023-02-19T01:42:12;49437.75;;;11.28;100.00
3590;BME280;1809;48.470;9.226;2023-02-19T01:47:03;49772.13;;;11.23;100.00
3590;BME280;1809;48.470;9.226;2023-02-19T01:49:32;51463.28;;;11.24;100.00
3590;BME280;1809;48.470;9.226;2023-02-19T01:54:31;53152.34;;;11.22;100.00
3590;BME280;1809;48.470;9.226;2023-02-19T01:56:58;53154.06;;;11.24;100.00
3590;BME280;1809;48.470;9.226;2023-02-19T01:59:26;53154.06;;;11.24;100.00
3590;BME280;1809;48.470;9.226;2023-02-19T02:01:51;55520.88;;;11.21;100.00
3590;BME280;1809;48.470;9.226;2023-02-19T02:04:17;57547.16;;;11.15;100.00
3590;BME280;1809;48.470;9.226;2023-02-19T02:06:49;63980.50;;;11.07;100.00
3590;BME280;1809;48.470;9.226;2023-02-19T02:09:17;65344.41;;;11.13;100.00
3590;BME280;1809;48.470;9.226;2023-02-19T02:12:02;64999.13;;;11.08;100.00
3590;BME280;1809;48.470;9.226;2023-02-19T02:14:30;67020.94;;;10.94;100.00
3590;BME280;1809;48.470;9.226;2023-02-19T02:22:58;61607.66;;;11.09;100.00
3590;BME280;1809;48.470;9.226;2023-02-19T02:25:48;59923.38;;;11.20;100.00
3590;BME280;1809;48.470;9.226;2023-02-19T02:31:08;61256.63;;;10.97;100.00
3590;BME280;1809;48.470;9.226;2023-02-19T02:33:48;65670.00;;;11.00;100.00
3590;BME280;1809;48.470;9.226;2023-02-19T02:36:30;60594.00;;;11.12;100.00
3590;BME280;1809;48.470;9.226;2023-02-19T02:38:59;57534.56;;;11.02;100.00
3590;BME280;1809;48.470;9.226;2023-02-19T02:41:25;59235.88;;;11.10;100.00
3590;BME280;1809;48.470;9.226;2023-02-19T02:43:50;57541.09;;;11.09;100.00
3590;BME280;1809;48.470;9.226;2023-02-19T02:46:33;55516.84;;;11.17;100.00
3590;BME280;1809;48.470;9.226;2023-02-19T02:49:13;51112.31;;;11.09;100.00
3590;BME280;1809;48.470;9.226;2023-02-19T02:51:45;50100.81;;;11.12;100.00
3590;BME280;1809;48.470;9.226;2023-02-19T02:54:15;46721.50;;;11.10;100.00
3590;BME280;1809;48.470;9.226;2023-02-19T02:57:01;43348.56;;;11.12;100.00
3590;BME280;1809;48.470;9.226;2023-02-19T02:59:32;31229.84;;;11.14;100.00
3590;BME280;1809;48.470;9.226;2023-02-19T03:02:04;28202.50;;;11.05;100.00
3590;BME280;1809;48.470;9.226;2023-02-19T03:07:37;18480.78;;;11.05;100.00
3590;BME280;1809;48.470;9.226;2023-02-19T03:10:06;11793.00;;;11.06;100.00
3590;BME280;1809;48.470;9.226;2023-02-19T03:12:34;4785.22;;;11.07;100.00
3590;BME280;1809;48.470;9.226;2023-02-19T03:15:22;6451.75;;;11.00;100.00
3590;BME280;1809;48.470;9.226;2023-02-19T03:18:08;3451.47;;;10.95;100.00
3590;BME280;1809;48.470;9.226;2023-02-19T03:20:57;11123.09;;;10.95;100.00
3590;BME280;1809;48.470;9.226;2023-02-19T03:23:25;2119.22;;;11.00;100.00
3590;BME280;1809;48.470;9.226;2023-02-19T03:26:13;787.28;;;10.93;100.00
3590;BME280;1809;48.470;9.226;2023-02-19T03:28:41;-4866.69;;;10.92;100.00
3590;BME280;1809;48.470;9.226;2023-02-19T03:31:28;-8187.97;;;10.92;100.00
3590;BME280;1809;48.470;9.226;2023-02-19T03:33:59;-4534.03;;;10.88;100.00
3590;BME280;1809;48.470;9.226;2023-02-19T03:36:32;-4202.22;;;10.94;100.00
3590;BME280;1809;48.470;9.226;2023-02-19T03:39:04;-2872.41;;;10.94;100.00
3590;BME280;1809;48.470;9.226;2023-02-19T03:41:39;-5530.59;;;10.86;100.00
3590;BME280;1809;48.470;9.226;2023-02-19T03:46:53;-3204.31;;;10.85;100.00
3590;BME280;1809;48.470;9.226;2023-02-19T03:49:33;-6859.25;;;10.87;100.00
3590;BME280;1809;48.470;9.226;2023-02-19T03:55:11;-16372.00;;;10.88;100.00
3590;BME280;1809;48.470;9.226;2023-02-19T03:57:57;-13167.88;;;10.88;100.00
3590;BME280;1809;48.470;9.226;2023-02-19T04:01:01;-15208.91;;;10.93;100.00
3590;BME280;1809;48.470;9.226;2023-02-19T04:03:40;-14750.00;;;10.79;100.00
3590;BME280;1809;48.470;9.226;2023-02-19T04:06:17;-10796.09;;;10.78;100.00
3590;BME280;1809;48.470;9.226;2023-02-19T04:08:47;-5530.28;;;10.83;100.00
3590;BME280;1809;48.470;9.226;2023-02-19T04:11:15;-12069.41;;;10.86;100.00
3590;BME280;1809;48.470;9.226;2023-02-19T04:13:50;-14094.22;;;10.86;100.00
3590;BME280;1809;48.470;9.226;2023-02-19T04:16:21;-9716.22;;;10.83;100.00
3590;BME280;1809;48.470;9.226;2023-02-19T04:18:51;-11992.63;;;10.77;100.00
3590;BME280;1809;48.470;9.226;2023-02-19T04:21:19;-10118.19;;;10.84;100.00
3590;BME280;1809;48.470;9.226;2023-02-19T04:23:45;-8850.09;;;10.80;100.00
3590;BME280;1809;48.470;9.226;2023-02-19T04:26:13;-5861.59;;;10.74;100.00
3590;BME280;1809;48.470;9.226;2023-02-19T04:28:39;-1541.59;;;10.80;100.00
3590;BME280;1809;48.470;9.226;2023-02-19T04:31:07;-4200.88;;;10.77;100.00
3590;BME280;1809;48.470;9.226;2023-02-19T04:33:32;8448.81;;;10.63;100.00
3590;BME280;1809;48.470;9.226;2023-02-19T04:35:57;4782.59;;;10.67;100.00
3590;BME280;1809;48.470;9.226;2023-02-19T04:38:23;5449.78;;;10.78;100.00
3590;BME280;1809;48.470;9.226;2023-02-19T04:40:48;10118.31;;;10.74;100.00
3590;BME280;1809;48.470;9.226;2023-02-19T04:43:15;16462.22;;;10.62;100.00
3590;BME280;1809;48.470;9.226;2023-02-19T04:45:41;19809.41;;;10.70;100.00
3590;BME280;1809;48.470;9.226;2023-02-19T04:48:06;23491.09;;;10.65;100.00
3590;BME280;1809;48.470;9.226;2023-02-19T04:50:31;27514.06;;;10.66;100.00
3590;BME280;1809;48.470;9.226;2023-02-19T04:52:57;34227.06;;;10.61;100.00
3590;BME280;1809;48.470;9.226;2023-02-19T04:55:22;37588.38;;;10.59;100.00
3590;BME280;1809;48.470;9.226;2023-02-19T04:57:47;37255.00;;;10.64;100.00
3590;BME280;1809;48.470;9.226;2023-02-19T05:00:13;38598.09;;;10.60;100.00
3590;BME280;1809;48.470;9.226;2023-02-19T05:02:39;51743.66;;;10.55;100.00
3590;BME280;1809;48.470;9.226;2023-02-19T05:05:04;62899.28;;;10.45;100.00
3590;BME280;1809;48.470;9.226;2023-02-19T05:07:29;69327.88;;;10.31;100.00
3590;BME280;1809;48.470;9.226;2023-02-19T05:09:55;74415.13;;;10.24;100.00
3590;BME280;1809;48.470;9.226;2023-02-19T05:12:20;79182.06;;;10.28;100.00
3590;BME280;1809;48.470;9.226;2023-02-19T05:14:46;83596.25;;;10.18;100.00
3590;BME280;1809;48.470;9.226;2023-02-19T05:17:11;88032.66;;;10.20;100.00
3590;BME280;1809;48.470;9.226;2023-02-19T05:19:36;89391.19;;;10.16;100.00
3590;BME280;1809;48.470;9.226;2023-02-19T05:22:02;89379.47;;;10.08;100.00
3590;BME280;1809;48.470;9.226;2023-02-19T05:24:27;91764.75;;;10.05;100.00
3590;BME280;1809;48.470;9.226;2023-02-19T05:26:54;93812.03;;;10.03;100.00
3590;BME280;1809;48.470;9.226;2023-02-19T05:29:19;95860.47;;;10.02;100.00
3590;BME280;1809;48.470;9.226;2023-02-19T05:31:44;97558.28;;;9.94;100.00
3590;BME280;1809;48.470;9.226;2023-02-19T05:34:10;98925.78;;;9.94;100.00
3590;BME280;1809;48.470;9.226;2023-02-19T05:36:36;97897.94;;;9.93;100.00
3590;BME280;1809;48.470;9.226;2023-02-19T05:39:01;97225.06;;;10.00;100.00
3590;BME280;1809;48.470;9.226;2023-02-19T05:41:28;96862.41;;;9.87;100.00
3590;BME280;1809;48.470;9.226;2023-02-19T05:43:54;97215.50;;;9.94;100.00
3590;BME280;1809;48.470;9.226;2023-02-19T05:46:22;96190.50;;;9.94;100.00
3590;BME280;1809;48.470;9.226;2023-02-19T05:48:48;95168.13;;;9.96;100.00
3590;BME280;1809;48.470;9.226;2023-02-19T05:51:16;93460.38;;;9.97;100.00
3590;BME280;1809;48.470;9.226;2023-02-19T05:53:42;92768.09;;;9.91;100.00
3590;BME280;1809;48.470;9.226;2023-02-19T05:58:45;92089.63;;;9.94;100.00
3590;BME280;1809;48.470;9.226;2023-02-19T06:01:16;91063.16;;;9.92;100.00
3590;BME280;1809;48.470;9.226;2023-02-19T06:03:41;91065.38;;;9.94;100.00
3590;BME280;1809;48.470;9.226;2023-02-19T06:06:08;90722.56;;;9.93;100.00
3590;BME280;1809;48.470;9.226;2023-02-19T06:08:33;90721.81;;;9.92;100.00
3590;BME280;1809;48.470;9.226;2023-02-19T06:10:59;89697.97;;;9.92;100.00
3590;BME280;1809;48.470;9.226;2023-02-19T06:13:24;88000.19;;;9.98;100.00
3590;BME280;1809;48.470;9.226;2023-02-19T06:15:49;86969.94;;;9.93;100.00
3590;BME280;1809;48.470;9.226;2023-02-19T06:18:15;87647.63;;;9.90;100.00
3590;BME280;1809;48.470;9.226;2023-02-19T06:20:40;87306.63;;;9.90;100.00
3590;BME280;1809;48.470;9.226;2023-02-19T06:23:05;86291.63;;;9.95;100.00
3590;BME280;1809;48.470;9.226;2023-02-19T06:25:31;83901.97;;;9.92;100.00
3590;BME280;1809;48.470;9.226;2023-02-19T06:27:56;82201.13;;;9.94;100.00
3590;BME280;1809;48.470;9.226;2023-02-19T06:30:21;80501.72;;;9.96;100.00
3590;BME280;1809;48.470;9.226;2023-02-19T06:32:46;78122.72;;;9.98;100.00
3590;BME280;1809;48.470;9.226;2023-02-19T06:35:12;77437.50;;;9.94;100.00
3590;BME280;1809;48.470;9.226;2023-02-19T06:37:37;77098.13;;;9.94;100.00
3590;BME280;1809;48.470;9.226;2023-02-19T06:40:03;76416.34;;;9.93;100.00
3590;BME280;1809;48.470;9.226;2023-02-19T06:42:30;76414.47;;;9.91;100.00
3590;BME280;1809;48.470;9.226;2023-02-19T06:44:57;74376.22;;;9.92;100.00
3590;BME280;1809;48.470;9.226;2023-02-19T06:47:22;75731.63;;;9.89;100.00
3590;BME280;1809;48.470;9.226;2023-02-19T06:49:47;76743.75;;;9.83;100.00
3590;BME280;1809;48.470;9.226;2023-02-19T06:52:12;78451.31;;;9.89;100.00
3590;BME280;1809;48.470;9.226;2023-02-19T06:54:38;79476.97;;;9.93;100.00
3590;BME280;1809;48.470;9.226;2023-02-19T06:57:03;78455.81;;;9.92;100.00
3590;BME280;1809;48.470;9.226;2023-02-19T06:59:28;78464.16;;;9.99;100.00
3590;BME280;1809;48.470;9.226;2023-02-19T07:01:54;78797.88;;;9.94;100.00
3590;BME280;1809;48.470;9.226;2023-02-19T07:04:19;81183.78;;;9.97;100.00
3590;BME280;1809;48.470;9.226;2023-02-19T07:06:44;87296.63;;;9.83;100.00
3590;BME280;1809;48.470;9.226;2023-02-19T07:09:10;96825.03;;;9.63;100.00
3590;BME280;1809;48.470;9.226;2023-02-19T07:11:37;108435.97;;;9.47;100.00
3590;BME280;1809;48.470;9.226;2023-02-19T07:14:04;117327.72;;;9.30;100.00
3590;BME280;1809;48.470;9.226;2023-02-19T07:16:32;122130.25;;;9.24;100.00
3590;BME280;1809;48.470;9.226;2023-02-19T07:18:58;125916.66;;;9.24;100.00
3590;BME280;1809;48.470;9.226;2023-02-19T07:21:24;125229.94;;;9.25;100.00
3590;BME280;1809;48.470;9.226;2023-02-19T07:23:50;125927.03;;;9.29;100.00
3590;BME280;1809;48.470;9.226;2023-02-19T07:26:18;126273.59;;;9.30;100.00
3590;BME280;1809;48.470;9.226;2023-02-19T07:28:45;126269.38;;;9.28;100.00
3590;BME280;1809;48.470;9.226;2023-02-19T07:31:12;122156.44;;;9.37;100.00
3590;BME280;1809;48.470;9.226;2023-02-19T07:33:38;119414.53;;;9.42;100.00
3590;BME280;1809;48.470;9.226;2023-02-19T07:36:05;114262.19;;;9.43;100.00
3590;BME280;1809;48.470;9.226;2023-02-19T07:38:31;109467.31;;;9.48;100.00
3590;BME280;1809;48.470;9.226;2023-02-19T07:40:59;105019.00;;;9.52;100.00
3590;BME280;1809;48.470;9.226;2023-02-19T07:43:27;106385.81;;;9.50;100.00
3590;BME280;1809;48.470;9.226;2023-02-19T07:45:53;96819.44;;;9.59;100.00
3590;BME280;1809;48.470;9.226;2023-02-19T07:48:19;87267.31;;;9.62;100.00
3590;BME280;1809;48.470;9.226;2023-02-19T07:50:54;81136.66;;;9.61;100.00
3590;BME280;1809;48.470;9.226;2023-02-19T07:53:21;76377.66;;;9.61;100.00
3590;BME280;1809;48.470;9.226;2023-02-19T07:55:48;77391.31;;;9.57;100.00
3590;BME280;1809;48.470;9.226;2023-02-19T07:58:14;61125.34;;;9.63;100.00
3590;BME280;1809;48.470;9.226;2023-02-19T08:00:39;47961.94;;;9.66;100.00
3590;BME280;1809;48.470;9.226;2023-02-19T08:03:05;42242.50;;;9.72;100.00
3590;BME280;1809;48.470;9.226;2023-02-19T08:05:33;35860.97;;;9.79;100.00
3590;BME280;1809;48.470;9.226;2023-02-19T08:08:01;24129.69;;;9.82;100.00
3590;BME280;1809;48.470;9.226;2023-02-19T08:10:27;16442.50;;;9.85;100.00
3590;BME280;1809;48.470;9.226;2023-02-19T08:13:13;11772.28;;;9.89;100.00
3590;BME280;1809;48.470;9.226;2023-02-19T08:15:49;7108.50;;;9.99;100.00
3590;BME280;1809;48.470;9.226;2023-02-19T08:18:16;-2202.66;;;9.98;100.00
3590;BME280;1809;48.470;9.226;2023-02-19T08:20:43;3114.91;;;10.03;100.00
3590;BME280;1809;48.470;9.226;2023-02-19T08:23:09;-10669.28;;;10.09;100.00
3590;BME280;1809;48.470;9.226;2023-02-19T08:25:35;-16412.94;;;10.12;100.00
3590;BME280;1809;48.470;9.226;2023-02-19T08:28:01;-13921.66;;;10.13;100.00
3590;BME280;1809;48.470;9.226;2023-02-19T08:30:27;16779.78;;;9.98;100.00
3590;BME280;1809;48.470;9.226;2023-02-19T08:32:53;43264.44;;;9.90;100.00
3590;BME280;1809;48.470;9.226;2023-02-19T08:35:19;58100.97;;;9.83;100.00
3590;BME280;1809;48.470;9.226;2023-02-19T08:37:45;62489.25;;;9.74;100.00
3590;BME280;1809;48.470;9.226;2023-02-19T08:40:11;66190.84;;;9.52;100.00
3590;BME280;1809;48.470;9.226;2023-02-19T08:42:36;66176.84;;;9.39;100.00
3590;BME280;1809;48.470;9.226;2023-02-19T08:45:02;76010.59;;;9.39;100.00
3590;BME280;1809;48.470;9.226;2023-02-19T08:47:27;79400.97;;;9.34;100.00
3590;BME280;1809;48.470;9.226;2023-02-19T08:49:52;88232.00;;;9.22;100.00
3590;BME280;1809;48.470;9.226;2023-02-19T08:52:18;91983.94;;;9.23;100.00
3590;BME280;1809;48.470;9.226;2023-02-19T08:54:43;93695.09;;;9.27;100.00
3590;BME280;1809;48.470;9.226;2023-02-19T08:57:08;85513.84;;;9.26;100.00
3590;BME280;1809;48.470;9.226;2023-02-19T08:59:34;83490.22;;;9.40;100.00
3590;BME280;1809;48.470;9.226;2023-02-19T09:01:59;73984.56;;;9.48;100.00
3590;BME280;1809;48.470;9.226;2023-02-19T09:04:24;67558.50;;;9.64;100.00
3590;BME280;1809;48.470;9.226;2023-02-19T09:06:50;61134.28;;;9.72;100.00
3590;BME280;1809;48.470;9.226;2023-02-19T09:09:15;42586.84;;;9.84;100.00
3590;BME280;1809;48.470;9.226;2023-02-19T09:11:41;29826.03;;;9.88;100.00
3590;BME280;1809;48.470;9.226;2023-02-19T09:14:07;25474.78;;;9.98;100.00
3590;BME280;1809;48.470;9.226;2023-02-19T09:16:33;18780.91;;;9.86;100.00
3590;BME280;1809;48.470;9.226;2023-02-19T09:18:59;19784.84;;;9.91;100.00
3590;BME280;1809;48.470;9.226;2023-02-19T09:21:24;22462.75;;;9.99;100.00
3590;BME280;1809;48.470;9.226;2023-02-19T09:23:49;23800.88;;;9.98;100.00
3590;BME280;1809;48.470;9.226;2023-02-19T09:26:15;20796.41;;;10.17;100.00
3590;BME280;1809;48.470;9.226;2023-02-19T09:28:40;16783.72;;;10.13;100.00
3590;BME280;1809;48.470;9.226;2023-02-19T09:31:11;-5192.50;;;10.25;100.00
3590;BME280;1809;48.470;9.226;2023-02-19T09:33:37;-11302.97;;;10.21;100.00
3590;BME280;1809;48.470;9.226;2023-02-19T09:36:05;-6850.63;;;10.17;100.00
3590;BME280;1809;48.470;9.226;2023-02-19T09:38:31;-5522.13;;;10.03;100.00
3590;BME280;1809;48.470;9.226;2023-02-19T09:40:56;122.56;;;10.05;100.00
3590;BME280;1809;48.470;9.226;2023-02-19T09:43:25;-3199.84;;;10.15;100.00
3590;BME280;1809;48.470;9.226;2023-02-19T09:46:05;-15952.47;;;10.10;100.00
3590;BME280;1809;48.470;9.226;2023-02-19T09:48:33;-16454.41;;;10.24;100.00
3590;BME280;1809;48.470;9.226;2023-02-19T09:50:59;-16454.13;;;10.23;100.00
3590;BME280;1809;48.470;9.226;2023-02-19T09:53:28;-16456.09;;;10.30;100.00
3590;BME280;1809;48.470;9.226;2023-02-19T09:55:56;-16453.00;;;10.19;100.00
3590;BME280;1809;48.470;9.226;2023-02-19T09:58:29;-16459.03;;;10.41;100.00
3590;BME280;1809;48.470;9.226;2023-02-19T10:00:58;-16464.94;;;10.62;100.00
3590;BME280;1809;48.470;9.226;2023-02-19T10:03:31;-16466.50;;;10.67;100.00
3590;BME280;1809;48.470;9.226;2023-02-19T10:06:05;-16463.13;;;10.55;100.00
3590;BME280;1809;48.470;9.226;2023-02-19T10:08:34;-16462.41;;;10.53;100.00
3590;BME280;1809;48.470;9.226;2023-02-19T10:11:03;-16462.28;;;10.52;100.00
3590;BME280;1809;48.470;9.226;2023-02-19T10:13:33;-16455.25;;;10.27;100.00
3590;BME280;1809;48.470;9.226;2023-02-19T10:16:01;-9963.72;;;9.86;100.00
3590;BME280;1809;48.470;9.226;2023-02-19T10:18:34;24464.53;;;9.83;100.00
3590;BME280;1809;48.470;9.226;2023-02-19T10:21:00;39548.88;;;9.66;100.00
3590;BME280;1809;48.470;9.226;2023-02-19T10:23:25;60784.66;;;9.61;100.00
3590;BME280;1809;48.470;9.226;2023-02-19T10:25:56;81783.00;;;9.35;100.00
3590;BME280;1809;48.470;9.226;2023-02-19T10:28:24;103898.34;;;8.97;100.00
3590;BME280;1809;48.470;9.226;2023-02-19T10:30:57;121719.84;;;8.91;100.00
3590;BME280;1809;48.470;9.226;2023-02-19T10:33:24;133393.34;;;8.75;100.00
3590;BME280;1809;48.470;9.226;2023-02-19T10:35:59;137809.56;;;8.44;100.00
3590;BME280;1809;48.470;9.226;2023-02-19T10:38:34;143670.59;;;8.39;100.00
3590;BME280;1809;48.470;9.226;2023-02-19T10:41:04;147487.06;;;8.44;100.00
3590;BME280;1809;48.470;9.226;2023-02-19T10:43:35;149895.28;;;8.38;100.00
3590;BME280;1809;48.470;9.226;2023-02-19T10:46:13;150909.09;;;8.28;100.00
3590;BME280;1809;48.470;9.226;2023-02-19T10:48:48;151903.91;;;8.10;100.00
3590;BME280;1809;48.470;9.226;2023-02-19T10:51:14;154029.69;;;8.29;100.00
3590;BME280;1809;48.470;9.226;2023-02-19T10:53:47;156846.63;;;8.46;100.00
3590;BME280;1809;48.470;9.226;2023-02-19T10:56:24;156853.22;;;8.47;100.00
3590;BME280;1809;48.470;9.226;2023-02-19T10:58:50;156858.47;;;8.49;100.00
3590;BME280;1809;48.470;9.226;2023-02-19T11:01:24;156881.94;;;8.58;100.00
3590;BME280;1809;48.470;9.226;2023-02-19T11:04:14;156982.41;;;8.97;100.00
3590;BME280;1809;48.470;9.226;2023-02-19T11:06:39;157051.59;;;9.24;100.00
3590;BME280;1809;48.470;9.226;2023-02-19T11:09:05;157075.09;;;9.33;100.00
3590;BME280;1809;48.470;9.226;2023-02-19T11:11:39;157075.09;;;9.33;100.00
3590;BME280;1809;48.470;9.226;2023-02-19T11:14:18;157088.13;;;9.38;100.00
3590;BME280;1809;48.470;9.226;2023-02-19T11:16:47;157094.66;;;9.41;100.00
3590;BME280;1809;48.470;9.226;2023-02-19T11:21:53;157144.28;;;9.60;100.00
3590;BME280;1809;48.470;9.226;2023-02-19T11:24:34;157156.06;;;9.64;100.00
3590;BME280;1809;48.470;9.226;2023-02-19T11:27:05;157139.06;;;9.58;100.00
3590;BME280;1809;48.470;9.226;2023-02-19T11:29:32;157200.44;;;9.82;100.00
3590;BME280;1809;48.470;9.226;2023-02-19T11:34:45;154402.59;;;9.76;100.00
3590;BME280;1809;48.470;9.226;2023-02-19T11:37:13;152300.72;;;9.69;100.00
3590;BME280;1809;48.470;9.226;2023-02-19T11:39:40;149861.09;;;9.65;100.00
3590;BME280;1809;48.470;9.226;2023-02-19T11:42:34;146697.19;;;9.47;100.00
3590;BME280;1809;48.470;9.226;2023-02-19T11:45:21;150154.47;;;9.43;100.00
3590;BME280;1809;48.470;9.226;2023-02-19T11:50:32;146332.47;;;9.40;100.00
3590;BME280;1809;48.470;9.226;2023-02-19T11:53:30;139735.78;;;9.31;100.00
3590;BME280;1809;48.470;9.226;2023-02-19T11:56:18;140121.09;;;9.48;100.00
3590;BME280;1809;48.470;9.226;2023-02-19T12:04:29;129441.53;;;9.61;100.00
3590;BME280;1809;48.470;9.226;2023-02-19T12:10:09;115311.44;;;9.53;100.00
3590;BME280;1809;48.470;9.226;2023-02-19T12:12:58;107092.28;;;9.62;100.00
3590;BME280;1809;48.470;9.226;2023-02-19T12:26:27;21795.22;;;10.03;100.00
3590;BME280;1809;48.470;9.226;2023-02-19T12:45:46;-16471.53;;;10.86;100.00
3590;BME280;1809;48.470;9.226;2023-02-19T12:50:46;-16468.59;;;10.75;100.00
3590;BME280;1809;48.470;9.226;2023-02-19T12:53:36;-16468.75;;;10.75;100.00
3590;BME280;1809;48.470;9.226;2023-02-19T12:56:09;-16467.63;;;10.71;100.00
3590;BME280;1809;48.470;9.226;2023-02-19T13:01:51;-16460.31;;;10.45;100.00
3590;BME280;1809;48.470;9.226;2023-02-19T13:04:40;-16461.16;;;10.48;100.00
3590;BME280;1809;48.470;9.226;2023-02-19T13:07:12;-6524.06;;;10.60;100.00
3590;BME280;1809;48.470;9.226;2023-02-19T13:09:45;2451.66;;;10.76;100.00
3590;BME280;1809;48.470;9.226;2023-02-19T13:12:35;-16477.59;;;11.07;100.00
3590;BME280;1809;48.470;9.226;2023-02-19T13:15:13;-16479.13;;;11.13;100.00
3590;BME280;1809;48.470;9.226;2023-02-19T13:17:44;-16480.25;;;11.17;100.00
3590;BME280;1809;48.470;9.226;2023-02-19T13:20:19;-16477.72;;;11.08;100.00
3590;BME280;1809;48.470;9.226;2023-02-19T13:23:11;-16481.50;;;11.21;100.00
3590;BME280;1809;48.470;9.226;2023-02-19T13:29:01;-16487.84;;;11.44;100.00
3590;BME280;1809;48.470;9.226;2023-02-19T13:36:58;-16495.28;;;11.71;100.00
3590;BME280;1809;48.470;9.226;2023-02-19T13:39:24;-16498.22;;;11.81;100.00
3590;BME280;1809;48.470;9.226;2023-02-19T13:41:52;-16506.66;;;12.12;100.00
3590;BME280;1809;48.470;9.226;2023-02-19T13:44:29;-16508.19;;;12.17;100.00
3590;BME280;1809;48.470;9.226;2023-02-19T13:46:55;-16506.50;;;12.11;100.00
3590;BME280;1809;48.470;9.226;2023-02-19T13:51:57;-16503.41;;;12.00;100.00
3590;BME280;1809;48.470;9.226;2023-02-19T13:54:26;-16501.44;;;11.93;100.00
3590;BME280;1809;48.470;9.226;2023-02-19T13:59:52;-16497.94;;;11.80;100.00
3590;BME280;1809;48.470;9.226;2023-02-19T14:09:56;-16499.50;;;11.86;100.00
3590;BME280;1809;48.470;9.226;2023-02-19T14:12:33;-16496.97;;;11.77;100.00
3590;BME280;1809;48.470;9.226;2023-02-19T14:15:39;-16497.25;;;11.78;100.00
3590;BME280;1809;48.470;9.226;2023-02-19T14:18:40;-16491.06;;;11.56;100.00
3590;BME280;1809;48.470;9.226;2023-02-19T14:21:15;-16486.56;;;11.40;100.00
3590;BME280;1809;48.470;9.226;2023-02-19T14:23:40;-16483.34;;;11.28;100.00
3590;BME280;1809;48.470;9.226;2023-02-19T14:26:06;-16477.16;;;11.06;100.00
3590;BME280;1809;48.470;9.226;2023-02-19T14:28:34;-16475.75;;;11.01;100.00
3590;BME280;1809;48.470;9.226;2023-02-19T14:31:21;-16474.06;;;10.95;100.00
3590;BME280;1809;48.470;9.226;2023-02-19T14:33:52;-16470.56;;;10.82;100.00
3590;BME280;1809;48.470;9.226;2023-02-19T14:36:44;-16470.13;;;10.80;100.00
3590;BME280;1809;48.470;9.226;2023-02-19T14:39:22;-16469.03;;;10.76;100.00
3590;BME280;1809;48.470;9.226;2023-02-19T14:41:51;-16465.94;;;10.65;100.00
3590;BME280;1809;48.470;9.226;2023-02-19T14:44:21;-16464.09;;;10.59;100.00
3590;BME280;1809;48.470;9.226;2023-02-19T14:46:56;-16461.00;;;10.48;100.00
3590;BME280;1809;48.470;9.226;2023-02-19T14:49:39;-16462.69;;;10.54;100.00
3590;BME280;1809;48.470;9.226;2023-02-19T14:52:22;-16461.16;;;10.48;100.00
3590;BME280;1809;48.470;9.226;2023-02-19T14:54:57;-16458.63;;;10.39;100.00
3590;BME280;1809;48.470;9.226;2023-02-19T14:57:39;-1539.00;;;10.12;100.00
3590;BME280;1809;48.470;9.226;2023-02-19T15:00:25;34864.34;;;9.98;100.00
3590;BME280;1809;48.470;9.226;2023-02-19T15:02:52;45621.13;;;9.90;100.00
3590;BME280;1809;48.470;9.226;2023-02-19T15:05:28;59451.97;;;9.82;100.00